createdAt,value
2023-03-21T00:00:42.905Z,2.00
2023-03-21T00:03:10.163Z,2.00
2023-03-21T00:05:49.673Z,2.00
2023-03-21T00:08:16.936Z,2.00
2023-03-21T00:10:44.789Z,1.90
2023-03-21T00:13:16.192Z,1.90
2023-03-21T00:16:05.041Z,1.90
2023-03-21T00:18:43.142Z,1.90
2023-03-21T00:21:40.585Z,2.00
2023-03-21T00:24:03.546Z,1.90
2023-03-21T00:26:30.468Z,2.00
2023-03-21T00:28:57.550Z,1.90
2023-03-21T00:31:24.374Z,1.90
2023-03-21T00:33:51.256Z,1.90
2023-03-21T00:36:18.394Z,1.90
2023-03-21T00:38:46.011Z,1.90
2023-03-21T00:41:23.720Z,1.80
2023-03-21T00:44:02.160Z,1.80
2023-03-21T00:46:39.822Z,1.80
2023-03-21T00:49:09.303Z,1.80
2023-03-21T00:51:36.304Z,1.80
2023-03-21T00:54:05.720Z,1.80
2023-03-21T00:56:32.973Z,1.70
2023-03-21T00:58:59.831Z,1.70
2023-03-21T01:01:31.881Z,1.70
2023-03-21T01:04:04.667Z,1.60
2023-03-21T01:06:39.366Z,1.60
2023-03-21T01:09:18.401Z,1.60
2023-03-21T01:11:45.534Z,1.60
2023-03-21T01:14:22.454Z,1.60
2023-03-21T01:16:51.444Z,1.50
2023-03-21T01:22:06.849Z,1.50
2023-03-21T01:24:35.593Z,1.50
2023-03-21T01:27:04.702Z,1.50
2023-03-21T01:29:31.628Z,1.50
2023-03-21T01:31:58.503Z,1.50
2023-03-21T01:34:26.270Z,1.50
2023-03-21T01:36:53.189Z,1.50
2023-03-21T01:39:21.638Z,1.50
2023-03-21T01:41:49.927Z,1.50
2023-03-21T01:44:22.742Z,1.50
2023-03-21T01:47:11.592Z,1.50
2023-03-21T01:49:51.193Z,1.50
2023-03-21T01:52:37.518Z,1.50
2023-03-21T01:55:14.013Z,1.60
2023-03-21T01:58:05.885Z,1.50
2023-03-21T02:00:57.721Z,1.50
2023-03-21T02:03:38.403Z,1.50
2023-03-21T02:06:35.399Z,1.50
2023-03-21T02:09:14.177Z,1.50
2023-03-21T02:11:46.492Z,1.50
2023-03-21T02:14:26.561Z,1.50
2023-03-21T02:17:03.596Z,1.50
2023-03-21T02:20:08.968Z,1.50
2023-03-21T02:22:48.080Z,1.50
2023-03-21T02:25:35.726Z,1.40
2023-03-21T02:28:24.491Z,1.50
2023-03-21T02:31:06.698Z,1.50
2023-03-21T02:34:01.478Z,1.50
2023-03-21T02:36:48.920Z,1.50
2023-03-21T02:39:36.416Z,1.50
2023-03-21T02:42:16.668Z,1.50
2023-03-21T02:44:57.547Z,1.50
2023-03-21T02:47:34.919Z,1.50
2023-03-21T02:50:09.330Z,1.50
2023-03-21T02:52:39.834Z,1.50
2023-03-21T02:55:32.064Z,1.50
2023-03-21T02:58:12.464Z,1.40
2023-03-21T03:00:44.764Z,1.40
2023-03-21T03:03:24.835Z,1.40
2023-03-21T03:06:02.161Z,1.40
2023-03-21T03:09:07.336Z,1.40
2023-03-21T03:11:40.044Z,1.40
2023-03-21T03:14:49.988Z,1.40
2023-03-21T03:17:58.155Z,1.40
2023-03-21T03:20:46.873Z,1.40
2023-03-21T03:23:28.425Z,1.40
2023-03-21T03:26:11.576Z,1.40
2023-03-21T03:28:44.922Z,1.40
2023-03-21T03:31:21.982Z,1.40
2023-03-21T03:33:57.152Z,1.40
2023-03-21T03:36:32.385Z,1.40
2023-03-21T03:39:09.050Z,1.40
2023-03-21T03:42:15.047Z,1.40
2023-03-21T03:44:37.859Z,1.40
2023-03-21T03:47:32.385Z,1.50
2023-03-21T03:50:10.148Z,1.50
2023-03-21T03:52:57.156Z,1.50
2023-03-21T03:55:34.323Z,1.50
2023-03-21T03:58:19.636Z,1.50
2023-03-21T04:00:49.484Z,1.50
2023-03-21T04:03:16.416Z,1.50
2023-03-21T04:05:46.274Z,1.50
2023-03-21T04:08:16.143Z,1.50
2023-03-21T04:10:46.616Z,1.50
2023-03-21T04:13:13.924Z,1.50
2023-03-21T04:16:00.153Z,1.50
2023-03-21T04:18:27.852Z,1.50
2023-03-21T04:20:54.662Z,1.50
2023-03-21T04:23:21.699Z,1.50
2023-03-21T04:25:56.650Z,1.50
2023-03-21T04:28:33.601Z,1.50
2023-03-21T04:31:25.669Z,1.60
2023-03-21T04:34:03.494Z,1.60
2023-03-21T04:36:39.231Z,1.60
2023-03-21T04:39:12.476Z,1.60
2023-03-21T04:41:42.249Z,1.60
2023-03-21T04:44:10.414Z,1.70
2023-03-21T04:46:37.930Z,1.70
2023-03-21T04:49:07.014Z,1.60
2023-03-21T04:51:34.929Z,1.60
2023-03-21T04:54:02.331Z,1.60
2023-03-21T04:56:34.144Z,1.60
2023-03-21T04:59:06.004Z,1.60
2023-03-21T05:01:32.993Z,1.60
2023-03-21T05:04:01.878Z,1.70
2023-03-21T05:06:32.082Z,1.70
2023-03-21T05:09:01.527Z,1.70
2023-03-21T05:11:30.919Z,1.70
2023-03-21T05:14:01.238Z,1.70
2023-03-21T05:16:30.883Z,1.70
2023-03-21T05:18:59.236Z,1.70
2023-03-21T05:21:29.779Z,1.70
2023-03-21T05:23:58.511Z,1.70
2023-03-21T05:26:25.957Z,1.70
2023-03-21T05:28:59.737Z,1.70
2023-03-21T05:31:26.640Z,1.70
2023-03-21T05:34:04.318Z,1.70
2023-03-21T05:36:34.078Z,1.70
2023-03-21T05:39:05.414Z,1.70
2023-03-21T05:41:35.870Z,1.70
2023-03-21T05:44:04.583Z,1.70
2023-03-21T05:46:31.622Z,1.70
2023-03-21T05:48:58.961Z,1.80
2023-03-21T05:51:25.954Z,1.80
2023-03-21T05:53:52.795Z,1.80
2023-03-21T05:56:21.236Z,1.80
2023-03-21T05:58:55.149Z,1.80
2023-03-21T06:01:23.345Z,1.80
2023-03-21T06:04:04.203Z,1.90
2023-03-21T06:06:31.074Z,1.90
2023-03-21T06:09:01.638Z,1.90
2023-03-21T06:11:32.101Z,1.90
2023-03-21T06:14:20.551Z,1.90
2023-03-21T06:17:03.691Z,1.90
2023-03-21T06:19:31.967Z,1.90
2023-03-21T06:22:08.467Z,1.90
2023-03-21T06:24:38.573Z,1.90
2023-03-21T06:27:05.677Z,1.90
2023-03-21T06:29:46.391Z,1.90
2023-03-21T06:32:13.716Z,1.90
2023-03-21T06:34:41.121Z,1.90
2023-03-21T06:37:10.034Z,1.90
2023-03-21T06:39:37.307Z,2.00
2023-03-21T06:42:04.340Z,2.00
2023-03-21T06:44:31.327Z,2.00
2023-03-21T06:47:03.191Z,2.00
2023-03-21T06:49:30.894Z,2.00
2023-03-21T06:52:06.037Z,2.00
2023-03-21T06:54:32.851Z,2.00
2023-03-21T06:57:03.747Z,2.00
2023-03-21T06:59:34.295Z,1.90
2023-03-21T07:02:04.025Z,2.00
2023-03-21T07:04:33.196Z,2.00
2023-03-21T07:07:00.074Z,2.10
2023-03-21T07:09:28.258Z,2.00
2023-03-21T07:11:58.658Z,2.00
2023-03-21T07:14:34.569Z,2.10
2023-03-21T07:17:01.634Z,2.10
2023-03-21T07:19:29.558Z,2.20
2023-03-21T07:21:56.363Z,2.20
2023-03-21T07:24:23.154Z,2.20
2023-03-21T07:26:49.940Z,2.20
2023-03-21T07:29:17.631Z,2.20
2023-03-21T07:31:44.573Z,2.20
2023-03-21T07:34:11.649Z,2.20
2023-03-21T07:36:39.409Z,2.20
2023-03-21T07:39:07.556Z,2.30
2023-03-21T07:41:34.508Z,2.30
2023-03-21T07:44:12.828Z,2.30
2023-03-21T07:46:39.721Z,2.30
2023-03-21T07:49:06.812Z,2.30
2023-03-21T07:51:35.408Z,2.20
2023-03-21T07:54:02.743Z,2.30
2023-03-21T07:56:29.680Z,2.50
2023-03-21T07:58:56.516Z,2.50
2023-03-21T08:01:23.473Z,2.50
2023-03-21T08:03:51.416Z,2.60
2023-03-21T08:06:18.305Z,2.70
2023-03-21T08:08:45.088Z,2.70
2023-03-21T08:11:12.677Z,2.80
2023-03-21T08:13:39.869Z,2.80
2023-03-21T08:16:08.138Z,2.80
2023-03-21T08:18:34.956Z,2.90
2023-03-21T08:21:01.885Z,2.90
2023-03-21T08:23:29.709Z,2.90
2023-03-21T08:25:57.547Z,3.10
2023-03-21T08:28:24.765Z,3.00
2023-03-21T08:30:51.602Z,3.10
2023-03-21T08:33:18.831Z,3.10
2023-03-21T08:35:46.675Z,2.90
2023-03-21T08:38:13.965Z,3.00
2023-03-21T08:40:41.477Z,3.10
2023-03-21T08:43:08.443Z,3.10
2023-03-21T08:45:35.214Z,3.00
2023-03-21T08:48:02.148Z,3.00
2023-03-21T08:50:31.727Z,2.90
2023-03-21T08:52:58.561Z,3.00
2023-03-21T08:55:25.869Z,2.80
2023-03-21T08:57:52.690Z,2.80
2023-03-21T09:00:20.697Z,2.80
2023-03-21T09:02:51.457Z,2.90
2023-03-21T09:05:19.316Z,2.90
2023-03-21T09:07:46.440Z,3.00
2023-03-21T09:10:21.508Z,3.00
2023-03-21T09:12:51.237Z,3.00
2023-03-21T09:15:21.700Z,3.10
2023-03-21T09:17:52.505Z,3.20
2023-03-21T09:20:31.063Z,3.20
2023-03-21T09:22:59.802Z,3.30
2023-03-21T09:25:29.488Z,3.30
2023-03-21T09:27:58.125Z,3.10
2023-03-21T09:30:26.410Z,3.10
2023-03-21T09:32:55.567Z,3.20
2023-03-21T09:35:22.761Z,3.20
2023-03-21T09:37:50.163Z,3.30
2023-03-21T09:40:20.153Z,3.40
2023-03-21T09:42:59.702Z,3.20
2023-03-21T09:46:02.299Z,3.20
2023-03-21T09:48:58.027Z,3.30
2023-03-21T09:51:34.874Z,3.40
2023-03-21T09:54:08.709Z,3.30
2023-03-21T09:56:38.610Z,3.30
2023-03-21T09:59:09.029Z,3.40
2023-03-21T10:01:41.941Z,3.50
2023-03-21T10:04:14.088Z,3.50
2023-03-21T10:06:43.068Z,3.60
2023-03-21T10:09:24.454Z,3.50
2023-03-21T10:11:56.749Z,3.60
2023-03-21T10:14:40.914Z,3.50
2023-03-21T10:17:34.180Z,3.60
2023-03-21T10:20:22.488Z,3.80
2023-03-21T10:22:56.018Z,3.90
2023-03-21T10:25:33.018Z,4.00
2023-03-21T10:28:01.850Z,4.20
2023-03-21T10:30:47.008Z,4.20
2023-03-21T10:33:17.142Z,4.30
2023-03-21T10:35:50.681Z,4.30
2023-03-21T10:38:21.022Z,4.20
2023-03-21T10:40:48.114Z,4.00
2023-03-21T10:43:37.917Z,4.00
2023-03-21T10:46:21.292Z,4.20
2023-03-21T10:48:53.165Z,4.30
2023-03-21T10:51:22.672Z,4.00
2023-03-21T10:53:57.611Z,3.80
2023-03-21T10:56:31.140Z,3.80
2023-03-21T10:59:00.412Z,3.90
2023-03-21T11:01:39.993Z,3.90
2023-03-21T11:04:12.731Z,4.00
2023-03-21T11:06:41.379Z,3.80
2023-03-21T11:09:21.759Z,3.80
2023-03-21T11:12:02.784Z,3.80
2023-03-21T11:14:48.163Z,3.70
2023-03-21T11:17:17.987Z,3.70
2023-03-21T11:19:58.348Z,3.70
2023-03-21T11:22:39.312Z,3.80
2023-03-21T11:25:12.134Z,3.70
2023-03-21T11:27:52.312Z,3.80
2023-03-21T11:30:22.950Z,3.90
2023-03-21T11:32:58.357Z,4.00
2023-03-21T11:35:32.437Z,4.20
2023-03-21T11:37:59.744Z,4.20
2023-03-21T11:40:34.176Z,4.20
2023-03-21T11:43:02.656Z,4.20
2023-03-21T11:45:36.113Z,4.10
2023-03-21T11:48:12.958Z,4.00
2023-03-21T11:50:47.329Z,3.90
2023-03-21T11:53:29.040Z,3.90
2023-03-21T11:56:09.789Z,4.10
2023-03-21T11:58:55.895Z,4.20
2023-03-21T12:01:57.322Z,4.40
2023-03-21T12:04:32.891Z,4.50
2023-03-21T12:07:11.174Z,4.70
2023-03-21T12:09:54.314Z,4.60
2023-03-21T12:13:00.022Z,4.60
2023-03-21T12:16:05.683Z,4.60
2023-03-21T12:18:59.512Z,4.70
2023-03-21T12:21:46.621Z,4.60
2023-03-21T12:24:19.942Z,4.40
2023-03-21T12:27:18.540Z,4.40
2023-03-21T12:30:04.438Z,4.60
2023-03-21T12:32:50.619Z,4.50
2023-03-21T12:35:20.269Z,4.40
2023-03-21T12:38:04.072Z,4.40
2023-03-21T12:40:44.563Z,4.20
2023-03-21T12:43:11.267Z,4.10
2023-03-21T12:45:47.000Z,3.90
2023-03-21T12:48:51.467Z,3.80
2023-03-21T12:51:22.967Z,3.80
2023-03-21T12:54:17.560Z,3.90
2023-03-21T12:56:52.197Z,4.00
2023-03-21T12:59:39.325Z,4.10
2023-03-21T13:02:29.494Z,4.10
2023-03-21T13:05:16.839Z,4.10
2023-03-21T13:07:48.781Z,4.10
2023-03-21T13:10:21.297Z,4.20
2023-03-21T13:12:53.854Z,4.00
2023-03-21T13:15:36.892Z,4.00
2023-03-21T13:18:34.642Z,3.90
2023-03-21T13:21:12.476Z,3.90
2023-03-21T13:23:39.790Z,4.00
2023-03-21T13:26:11.315Z,4.00
2023-03-21T13:28:41.431Z,4.00
2023-03-21T13:31:21.443Z,3.90
2023-03-21T13:33:54.099Z,4.00
2023-03-21T13:36:29.831Z,4.00
2023-03-21T13:39:04.116Z,4.00
2023-03-21T13:41:39.593Z,4.00
2023-03-21T13:44:18.529Z,4.00
2023-03-21T13:47:03.828Z,3.80
2023-03-21T13:49:38.100Z,3.90
2023-03-21T13:52:11.101Z,3.90
2023-03-21T13:54:57.534Z,3.90
2023-03-21T13:57:27.307Z,3.80
2023-03-21T14:00:26.977Z,3.90
2023-03-21T14:03:16.454Z,3.90
2023-03-21T14:05:50.509Z,3.80
2023-03-21T14:08:27.940Z,3.90
2023-03-21T14:11:04.081Z,3.80
2023-03-21T14:13:33.111Z,3.80
2023-03-21T14:16:12.672Z,3.80
2023-03-21T14:18:56.022Z,3.80
2023-03-21T14:21:25.957Z,3.80
2023-03-21T14:24:02.074Z,3.80
2023-03-21T14:26:40.292Z,3.80
2023-03-21T14:29:24.775Z,3.90
2023-03-21T14:31:54.918Z,3.90
2023-03-21T14:34:22.768Z,3.90
2023-03-21T14:36:57.597Z,3.90
2023-03-21T14:39:30.843Z,3.90
2023-03-21T14:42:06.802Z,3.90
2023-03-21T14:44:56.683Z,3.90
2023-03-21T14:47:27.413Z,3.90
2023-03-21T14:49:54.852Z,4.00
2023-03-21T14:52:32.045Z,4.00
2023-03-21T14:55:01.012Z,4.00
2023-03-21T14:57:31.299Z,4.00
2023-03-21T15:00:14.625Z,4.10
2023-03-21T15:02:45.956Z,4.10
2023-03-21T15:05:27.005Z,4.30
2023-03-21T15:07:56.914Z,4.30
2023-03-21T15:10:25.958Z,4.40
2023-03-21T15:12:59.045Z,4.60
2023-03-21T15:15:28.289Z,4.60
2023-03-21T15:18:01.635Z,4.60
2023-03-21T15:20:34.127Z,4.60
2023-03-21T15:23:09.467Z,4.60
2023-03-21T15:25:37.548Z,4.60
2023-03-21T15:28:06.534Z,4.80
2023-03-21T15:30:34.268Z,4.90
2023-03-21T15:33:10.317Z,5.00
2023-03-21T15:35:46.052Z,5.00
2023-03-21T15:38:29.679Z,4.90
2023-03-21T15:41:19.058Z,4.80
2023-03-21T15:43:48.203Z,4.70
2023-03-21T15:46:52.246Z,4.60
2023-03-21T15:49:25.196Z,4.40
2023-03-21T15:51:57.795Z,4.40
2023-03-21T15:54:29.742Z,4.30
2023-03-21T15:57:03.371Z,4.30
2023-03-21T15:59:35.499Z,4.20
2023-03-21T16:02:03.826Z,4.20
2023-03-21T16:04:31.288Z,4.10
2023-03-21T16:07:04.289Z,4.10
2023-03-21T16:09:44.210Z,4.10
2023-03-21T16:12:13.529Z,4.00
2023-03-21T16:14:42.597Z,3.90
2023-03-21T16:17:39.464Z,3.80
2023-03-21T16:20:28.583Z,3.80
2023-03-21T16:22:55.471Z,3.80
2023-03-21T16:25:22.739Z,3.70
2023-03-21T16:27:49.701Z,3.70
2023-03-21T16:30:19.930Z,3.70
2023-03-21T16:32:47.737Z,3.70
2023-03-21T16:35:14.739Z,3.70
2023-03-21T16:37:41.881Z,3.60
2023-03-21T16:40:37.464Z,3.60
2023-03-21T16:43:04.499Z,3.60
2023-03-21T16:45:31.635Z,3.60
2023-03-21T16:47:59.427Z,3.70
2023-03-21T16:50:33.923Z,3.60
2023-03-21T16:53:02.021Z,3.60
2023-03-21T16:55:29.616Z,3.60
2023-03-21T16:57:57.418Z,3.60
2023-03-21T17:00:27.285Z,3.60
2023-03-21T17:02:56.185Z,3.60
2023-03-21T17:05:26.115Z,3.60
2023-03-21T17:07:54.593Z,3.60
2023-03-21T17:10:22.939Z,3.50
2023-03-21T17:12:50.163Z,3.50
2023-03-21T17:15:17.512Z,3.50
2023-03-21T17:17:45.048Z,3.60
2023-03-21T17:20:17.588Z,3.50
2023-03-21T17:22:45.235Z,3.60
2023-03-21T17:25:12.236Z,3.50
2023-03-21T17:27:39.452Z,3.50
2023-03-21T17:30:23.237Z,3.50
2023-03-21T17:32:51.601Z,3.50
2023-03-21T17:35:18.996Z,3.60
2023-03-21T17:37:50.586Z,3.50
2023-03-21T17:40:23.064Z,3.50
2023-03-21T17:42:51.112Z,3.50
2023-03-21T17:45:18.908Z,3.50
2023-03-21T17:47:46.170Z,3.50
2023-03-21T17:50:22.659Z,3.50
2023-03-21T17:52:50.851Z,3.50
2023-03-21T17:55:21.040Z,3.50
2023-03-21T17:57:49.389Z,3.50
2023-03-21T18:00:22.637Z,3.50
2023-03-21T18:02:50.446Z,3.40
2023-03-21T18:05:17.353Z,3.50
2023-03-21T18:08:08.667Z,3.40
2023-03-21T18:10:32.631Z,3.40
2023-03-21T18:13:00.284Z,3.50
2023-03-21T18:15:30.158Z,3.50
2023-03-21T18:17:58.325Z,3.50
2023-03-21T18:20:44.613Z,3.50
2023-03-21T18:23:14.614Z,3.50
2023-03-21T18:25:41.811Z,3.50
2023-03-21T18:28:11.875Z,3.40
2023-03-21T18:30:56.923Z,3.50
2023-03-21T18:33:27.441Z,3.40
2023-03-21T18:35:59.202Z,3.40
2023-03-21T18:38:27.785Z,3.40
2023-03-21T18:40:55.566Z,3.40
2023-03-21T18:46:09.658Z,3.40
2023-03-21T18:48:36.838Z,3.40
2023-03-21T18:51:04.420Z,3.30
2023-03-21T18:53:31.599Z,3.30
2023-03-21T18:55:58.449Z,3.30
2023-03-21T18:58:25.718Z,3.30
2023-03-21T19:00:53.649Z,3.30
2023-03-21T19:03:35.365Z,3.30
2023-03-21T19:06:04.953Z,3.30
2023-03-21T19:08:32.366Z,3.30
2023-03-21T19:11:03.343Z,3.20
2023-03-21T19:13:33.296Z,3.20
2023-03-21T19:16:02.479Z,3.20
2023-03-21T19:18:49.918Z,3.20
2023-03-21T19:21:19.054Z,3.20
2023-03-21T19:26:34.513Z,3.20
2023-03-21T19:29:01.487Z,3.20
2023-03-21T19:31:28.355Z,3.20
2023-03-21T19:33:55.713Z,3.20
2023-03-21T19:36:23.665Z,3.20
2023-03-21T19:38:51.721Z,3.20
2023-03-21T19:41:20.664Z,3.20
2023-03-21T19:43:54.647Z,3.20
2023-03-21T19:46:25.009Z,3.20
2023-03-21T19:48:56.294Z,3.20
2023-03-21T19:51:29.470Z,3.20
2023-03-21T19:54:03.329Z,3.20
2023-03-21T19:56:31.606Z,3.20
2023-03-21T19:58:59.701Z,3.20
2023-03-21T20:01:27.745Z,3.20
2023-03-21T20:03:54.925Z,3.10
2023-03-21T20:06:24.830Z,3.10
2023-03-21T20:11:40.401Z,3.10
2023-03-21T20:14:07.466Z,3.10
2023-03-21T20:16:36.586Z,3.00
2023-03-21T20:19:10.243Z,3.00
2023-03-21T20:21:48.208Z,2.90
2023-03-21T20:24:18.970Z,2.90
2023-03-21T20:26:46.513Z,2.90
2023-03-21T20:32:00.783Z,2.90
2023-03-21T20:34:28.453Z,2.80
2023-03-21T20:36:56.052Z,2.80
2023-03-21T20:39:23.264Z,2.70
2023-03-21T20:41:50.170Z,2.70
2023-03-21T20:47:05.860Z,2.70
2023-03-21T20:49:35.562Z,2.70
2023-03-21T20:54:54.029Z,2.60
2023-03-21T20:57:21.072Z,2.60
2023-03-21T20:59:47.924Z,2.60
2023-03-21T21:02:14.936Z,2.60
2023-03-21T21:07:29.417Z,2.50
2023-03-21T21:09:56.380Z,2.50
2023-03-21T21:12:27.593Z,2.50
2023-03-21T21:14:55.824Z,2.50
2023-03-21T21:17:40.324Z,2.50
2023-03-21T21:20:17.334Z,2.50
2023-03-21T21:22:59.083Z,2.50
2023-03-21T21:25:28.962Z,2.50
2023-03-21T21:27:55.999Z,2.50
2023-03-21T21:30:23.075Z,2.50
2023-03-21T21:32:50.012Z,2.50
2023-03-21T21:35:19.406Z,2.60
2023-03-21T21:37:46.286Z,2.60
2023-03-21T21:40:15.729Z,2.60
2023-03-21T21:42:43.882Z,2.60
2023-03-21T21:45:12.239Z,2.60
2023-03-21T21:47:39.664Z,2.70
2023-03-21T21:50:07.557Z,2.70
2023-03-21T21:52:34.440Z,2.70
2023-03-21T21:55:02.210Z,2.70
2023-03-21T21:57:34.080Z,2.70
2023-03-21T22:00:06.885Z,2.70
2023-03-21T22:02:39.065Z,2.70
2023-03-21T22:05:06.945Z,2.70
2023-03-21T22:07:33.728Z,2.70
2023-03-21T22:10:00.554Z,2.70
2023-03-21T22:12:28.504Z,2.70
2023-03-21T22:14:55.306Z,2.70
2023-03-21T22:17:22.172Z,2.80
2023-03-21T22:20:04.364Z,2.80
2023-03-21T22:22:36.652Z,2.80
2023-03-21T22:25:05.682Z,2.80
2023-03-21T22:27:32.724Z,2.80
2023-03-21T22:30:04.706Z,2.80
2023-03-21T22:32:35.902Z,2.80
2023-03-21T22:35:02.907Z,2.80
2023-03-21T22:37:34.640Z,2.80
2023-03-21T22:40:01.528Z,2.80
2023-03-21T22:42:28.360Z,2.90
2023-03-21T22:44:55.365Z,2.90
2023-03-21T22:47:22.185Z,2.90
2023-03-21T22:49:49.082Z,2.90
2023-03-21T22:52:16.022Z,2.90
2023-03-21T22:54:42.896Z,2.90
2023-03-21T22:57:09.682Z,3.00
2023-03-21T22:59:36.480Z,3.00
2023-03-21T23:02:03.519Z,3.00
2023-03-21T23:04:31.278Z,3.00
2023-03-21T23:06:58.698Z,3.00
2023-03-21T23:09:25.632Z,3.00
2023-03-21T23:11:52.572Z,3.10
2023-03-21T23:14:21.027Z,3.10
2023-03-21T23:17:00.171Z,3.10
2023-03-21T23:19:28.780Z,3.10
2023-03-21T23:21:56.150Z,3.10
2023-03-21T23:24:23.348Z,3.20
2023-03-21T23:26:50.350Z,3.10
2023-03-21T23:29:17.194Z,3.10
2023-03-21T23:31:44.099Z,3.10
2023-03-21T23:34:12.123Z,3.10
2023-03-21T23:36:39.874Z,3.20
2023-03-21T23:39:06.963Z,3.20
2023-03-21T23:41:33.968Z,3.20
2023-03-21T23:44:00.855Z,3.20
2023-03-21T23:46:27.783Z,3.20
2023-03-21T23:48:54.646Z,3.20
2023-03-21T23:51:21.676Z,3.20
2023-03-21T23:53:48.824Z,3.20
2023-03-21T23:56:19.838Z,3.20
2023-03-21T23:58:47.722Z,3.30
